Time;durP1;ratioP1;P1;durP2;ratioP2;P2;SDS_P1;SDS_P2;PMS_P1;PMS_P2;Temp;Humidity;BMP_temperature;BMP_pressure;BME280_temperature;BME280_humidity;BME280_pressure;Samples;Min_cycle;Max_cycle;Signal;HPM_P1;HPM_P2
2022/01/28 00:00:41;;;;;;;27.38;4.65;;;3.60;99.90;;;;;;5110968;28;20043;-70
2022/01/28 00:03:09;;;;;;;32.35;4.50;;;4.40;99.90;;;;;;5110855;28;20505;-70
2022/01/28 00:05:36;;;;;;;39.40;5.03;;;3.80;99.90;;;;;;5093943;28;20044;-69
2022/01/28 00:08:03;;;;;;;34.85;4.95;;;4.00;99.90;;;;;;5110579;28;20040;-70
2022/01/28 00:10:30;;;;;;;34.10;5.13;;;4.00;99.90;;;;;;5110772;28;20081;-69
2022/01/28 00:37:48;;;;;;;27.50;4.57;;;;;;;;;;5109432;28;20489;-69
2022/01/28 00:40:11;;;;;;;24.10;4.05;;;;;;;;;;5110341;28;20040;-69
2022/01/28 00:42:37;;;;;;;20.92;4.07;;;4.20;99.90;;;;;;5110159;28;20509;-69
2022/01/28 00:45:04;;;;;;;23.02;4.40;;;3.80;99.90;;;;;;5110436;28;20044;-69
2022/01/28 00:47:30;;;;;;;19.60;3.85;;;4.20;99.90;;;;;;5110324;28;20047;-70
2022/01/28 00:49:56;;;;;;;22.65;4.07;;;4.30;99.90;;;;;;5110447;28;20467;-69
2022/01/28 00:52:26;;;;;;;22.42;3.83;;;4.20;99.90;;;;;;5111536;28;20035;-69
2022/01/28 00:54:52;;;;;;;21.83;3.97;;;;;;;;;;5092870;28;20043;-69
2022/01/28 00:57:18;;;;;;;23.65;3.45;;;;;;;;;;5108324;28;20562;-70
2022/01/28 00:59:44;;;;;;;19.60;3.63;;;;;;;;;;5091803;28;20403;-69
2022/01/28 01:02:10;;;;;;;19.48;3.80;;;4.40;99.90;;;;;;5108657;28;20055;-70
2022/01/28 01:04:36;;;;;;;19.38;3.63;;;;;;;;;;5108294;28;20776;-69
2022/01/28 01:07:01;;;;;;;23.63;3.60;;;4.00;99.90;;;;;;5091139;28;20039;-69
2022/01/28 01:09:28;;;;;;;20.65;3.55;;;;;;;;;;5108374;28;20380;-70
2022/01/28 01:11:54;;;;;;;20.27;3.53;;;4.00;99.90;;;;;;5109261;28;20121;-69
2022/01/28 01:14:20;;;;;;;21.50;3.67;;;;;;;;;;5109483;28;20043;-69
2022/01/28 01:17:09;;;;;;;17.27;3.10;;;;;;;;;;5110661;28;20066;-69
2022/01/28 01:19:41;;;;;;;21.08;3.60;;;4.30;99.90;;;;;;5110904;28;20059;-70
2022/01/28 01:22:09;;;;;;;16.75;3.40;;;4.40;99.90;;;;;;5109534;28;20046;-69
2022/01/28 01:24:37;;;;;;;20.73;3.95;;;4.30;99.90;;;;;;5110624;28;20065;-69
2022/01/28 01:27:04;;;;;;;20.13;3.42;;;4.30;99.90;;;;;;5113546;28;20039;-69
2022/01/28 01:29:30;;;;;;;18.45;3.83;;;4.70;99.90;;;;;;5115160;28;20039;-69
2022/01/28 01:32:02;;;;;;;18.13;3.72;;;;;;;;;;5113685;28;20044;-69
2022/01/28 01:34:28;;;;;;;19.40;3.60;;;4.50;99.90;;;;;;5113905;28;20126;-69
2022/01/28 01:36:54;;;;;;;20.08;4.10;;;;;;;;;;5114948;28;20162;-69
2022/01/28 01:39:26;;;;;;;26.80;4.55;;;;;;;;;;5113684;28;20402;-69
2022/01/28 01:42:07;;;;;;;19.75;3.63;;;;;;;;;;5115147;28;20039;-69
2022/01/28 01:52:57;;;;;;;21.98;4.35;;;;;;;;;;5113771;28;20064;-69
2022/01/28 01:55:23;;;;;;;24.83;4.43;;;3.90;99.90;;;;;;5113685;28;20574;-69
2022/01/28 01:57:49;;;;;;;28.42;4.82;;;4.10;99.90;;;;;;5113238;28;20146;-69
2022/01/28 02:00:16;;;;;;;27.17;4.80;;;4.30;99.90;;;;;;5114493;28;20127;-69
2022/01/28 02:02:42;;;;;;;23.23;4.47;;;;;;;;;;5113370;28;20058;-72
2022/01/28 02:05:08;;;;;;;31.42;4.80;;;4.30;99.90;;;;;;5096106;28;20081;-72
2022/01/28 02:07:38;;;;;;;29.02;4.47;;;4.30;99.90;;;;;;5113854;28;20075;-72
2022/01/28 02:10:05;;;;;;;24.92;4.85;;;4.10;99.90;;;;;;5113470;28;20036;-71
2022/01/28 02:12:51;;;;;;;26.00;5.10;;;4.30;99.90;;;;;;5113216;28;20475;-71
2022/01/28 02:15:18;;;;;;;25.17;4.35;;;4.40;99.90;;;;;;5113949;28;20055;-72
2022/01/28 02:17:44;;;;;;;27.88;4.90;;;4.50;99.90;;;;;;5114025;28;20047;-72
2022/01/28 02:20:20;;;;;;;33.47;5.22;;;4.40;99.90;;;;;;5114206;28;20043;-72
2022/01/28 02:22:46;;;;;;;29.17;4.20;;;;;;;;;;5096564;28;20058;-72
2022/01/28 02:25:32;;;;;;;25.85;4.25;;;4.80;99.90;;;;;;5112592;28;20406;-72
2022/01/28 02:28:05;;;;;;;28.85;4.65;;;4.60;99.90;;;;;;5113777;28;20031;-72
2022/01/28 02:30:31;;;;;;;28.13;4.82;;;4.40;99.90;;;;;;5112468;28;20051;-72
2022/01/28 02:33:08;;;;;;;26.67;4.90;;;;;;;;;;5113681;28;20130;-72
2022/01/28 02:35:34;;;;;;;26.98;4.78;;;5.20;99.90;;;;;;5112271;28;20054;-72
2022/01/28 02:37:59;;;;;;;36.35;6.30;;;4.80;99.90;;;;;;5112758;28;20394;-72
2022/01/28 02:40:25;;;;;;;24.90;4.80;;;4.70;99.90;;;;;;5112492;28;20050;-71
2022/01/28 02:42:58;;;;;;;35.75;5.53;;;;;;;;;;5112527;28;20069;-72
2022/01/28 02:45:32;;;;;;;32.35;5.15;;;4.30;99.90;;;;;;5112278;28;20050;-72
2022/01/28 02:48:02;;;;;;;25.08;4.65;;;4.50;99.90;;;;;;5112400;28;20048;-72
2022/01/28 02:50:34;;;;;;;31.67;4.60;;;4.00;99.90;;;;;;5095259;28;20045;-72
2022/01/28 02:53:09;;;;;;;29.35;4.80;;;4.80;99.90;;;;;;5114207;28;20040;-72
2022/01/28 02:55:40;;;;;;;25.33;4.40;;;4.60;99.90;;;;;;5113785;28;20051;-71
2022/01/28 02:58:22;;;;;;;32.15;4.63;;;;;;;;;;5113423;28;20291;-72
2022/01/28 03:00:49;;;;;;;29.00;4.38;;;4.40;99.90;;;;;;5095083;28;20048;-72
2022/01/28 03:03:18;;;;;;;24.50;4.43;;;4.40;99.90;;;;;;5113240;28;20048;-72
2022/01/28 03:05:47;;;;;;;32.78;4.75;;;4.70;99.90;;;;;;5113365;28;20044;-72
2022/01/28 03:08:13;;;;;;;31.00;4.75;;;4.50;99.90;;;;;;5113371;28;20039;-72
2022/01/28 03:13:58;;;;;;;31.52;4.88;;;4.70;99.90;;;;;;5111847;28;20833;-71
2022/01/28 03:16:20;;;;;;;27.90;4.63;;;4.40;99.90;;;;;;5111097;28;20130;-70
2022/01/28 03:21:37;;;;;;;31.50;5.32;;;4.70;99.90;;;;;;5112034;28;20043;-70
2022/01/28 03:24:05;;;;;;;26.38;4.68;;;4.60;99.90;;;;;;5112174;28;20048;-70
2022/01/28 03:26:31;;;;;;;38.38;5.50;;;;;;;;;;5113083;28;20043;-70
2022/01/28 03:28:57;;;;;;;29.35;4.63;;;4.40;99.90;;;;;;5111897;28;20040;-70
2022/01/28 03:31:23;;;;;;;39.78;4.88;;;4.20;99.90;;;;;;5111607;28;20055;-70
2022/01/28 03:33:49;;;;;;;32.97;5.53;;;4.70;99.90;;;;;;5112867;28;20036;-70
2022/01/28 03:36:15;;;;;;;24.52;4.65;;;4.50;99.90;;;;;;5094500;28;20407;-70
2022/01/28 03:38:42;;;;;;;30.30;5.00;;;4.80;99.90;;;;;;5112807;28;20036;-70
2022/01/28 03:41:15;;;;;;;29.92;5.13;;;4.90;99.90;;;;;;5111613;28;20095;-70
2022/01/28 03:43:41;;;;;;;24.55;4.97;;;4.50;99.90;;;;;;5112798;28;20035;-70
2022/01/28 03:46:07;;;;;;;32.45;5.03;;;;;;;;;;5111066;28;20062;-70
2022/01/28 03:48:33;;;;;;;31.05;5.15;;;;;;;;;;5112841;28;20162;-69
2022/01/28 03:50:58;;;;;;;27.85;5.10;;;4.90;99.90;;;;;;5112395;28;20129;-70
2022/01/28 03:53:24;;;;;;;28.65;5.28;;;4.20;99.90;;;;;;5111114;28;20047;-70
2022/01/28 03:55:52;;;;;;;28.40;5.18;;;4.50;99.90;;;;;;5111206;28;20066;-70
2022/01/28 03:58:18;;;;;;;32.15;4.82;;;;;;;;;;5112153;28;20456;-70
2022/01/28 04:00:45;;;;;;;31.48;4.90;;;4.70;99.90;;;;;;5112141;28;20103;-69
2022/01/28 04:13:32;;;;;;;28.17;4.32;;;4.20;99.90;;;;;;5110876;28;20039;-70
2022/01/28 04:18:24;;;;;;;27.92;5.25;;;4.60;99.90;;;;;;5110262;28;20055;-70
2022/01/28 04:20:49;;;;;;;31.20;5.13;;;4.30;99.90;;;;;;5110869;28;20058;-70
2022/01/28 04:23:15;;;;;;;22.52;4.68;;;4.30;99.90;;;;;;5110874;28;20035;-70
2022/01/28 04:25:41;;;;;;;35.15;5.53;;;4.20;99.90;;;;;;5111589;28;20976;-69
2022/01/28 04:28:06;;;;;;;27.02;4.68;;;4.30;99.90;;;;;;5110327;28;20126;-69
2022/01/28 04:30:32;;;;;;;31.92;4.93;;;4.20;99.90;;;;;;5111937;28;20118;-70
2022/01/28 04:32:59;;;;;;;34.22;5.20;;;4.20;99.90;;;;;;5112005;28;20143;-70
2022/01/28 04:35:25;;;;;;;27.08;4.90;;;4.20;99.90;;;;;;5110978;28;20483;-69
2022/01/28 04:40:19;;;;;;;31.25;5.28;;;4.00;99.90;;;;;;5111344;28;20130;-70
2022/01/28 04:43:24;;;;;;;26.73;4.93;;;;;;;;;;5111712;28;20156;-69
2022/01/28 04:45:54;;;;;;;27.92;5.15;;;3.70;99.90;;;;;;5105845;28;20051;-69
2022/01/28 04:51:14;;;;;;;30.23;5.10;;;3.80;99.90;;;;;;5109953;28;20059;-70
2022/01/28 05:04:11;;;;;;;34.10;5.18;;;;;;;;;;5109392;28;20062;-70
2022/01/28 05:14:31;;;;;;;33.22;5.22;;;4.20;99.90;;;;;;5109228;28;20075;-70
2022/01/28 05:27:38;;;;;;;37.47;5.28;;;4.00;99.90;;;;;;5110036;28;20040;-69
2022/01/28 05:30:05;;;;;;;;;;;3.80;99.90;;;;;;5110501;28;20415;-69
2022/01/28 05:32:31;;;;;;;;;;;3.90;99.90;;;;;;5111359;28;20459;-69
2022/01/28 05:34:57;;;;;;;34.87;5.77;;;;;;;;;;5110890;28;20010;-69
2022/01/28 05:37:22;;;;;;;27.27;4.75;;;4.10;99.90;;;;;;5109716;28;20044;-69
2022/01/28 05:39:48;;;;;;;34.08;5.40;;;3.80;99.90;;;;;;5109479;28;20487;-69
2022/01/28 05:42:14;;;;;;;34.28;6.20;;;3.60;99.90;;;;;;5109602;28;20035;-69
2022/01/28 05:44:40;;;;;;;33.15;5.72;;;;;;;;;;5096747;28;20051;-69
2022/01/28 05:47:05;;;;;;;32.30;5.40;;;4.10;99.90;;;;;;5120591;28;20045;-69
2022/01/28 05:49:31;;;;;;;34.05;5.25;;;3.60;99.90;;;;;;5111742;28;20123;-69
2022/01/28 05:51:58;;;;;;;36.35;5.57;;;;;;;;;;5121869;27;20039;-70
2022/01/28 05:54:24;;;;;;;28.30;5.22;;;3.50;99.90;;;;;;5109089;28;20035;-69
2022/01/28 05:56:49;;;;;;;31.92;5.30;;;3.40;99.90;;;;;;5121735;27;20040;-69
2022/01/28 05:59:16;;;;;;;29.77;5.53;;;;;;;;;;5109269;28;20123;-70
2022/01/28 06:01:42;;;;;;;27.83;5.20;;;;;;;;;;5108899;28;20084;-70
2022/01/28 06:04:08;;;;;;;35.75;5.47;;;;;;;;;;5108769;28;20054;-69
2022/01/28 06:06:34;;;;;;;34.47;6.18;;;;;;;;;;5108880;28;20079;-69
2022/01/28 06:09:02;;;;;;;35.42;5.20;;;3.30;99.90;;;;;;5109313;28;20108;-69
2022/01/28 06:11:28;;;;;;;35.42;5.78;;;3.40;99.90;;;;;;5109180;28;20105;-69
2022/01/28 06:13:57;;;;;;;36.08;6.40;;;3.50;99.90;;;;;;5113489;28;20040;-69
2022/01/28 06:16:23;;;;;;;30.38;4.53;;;3.40;99.90;;;;;;5112624;28;20059;-69
2022/01/28 06:18:49;;;;;;;32.85;6.15;;;;;;;;;;5096184;28;20447;-69
2022/01/28 06:21:16;;;;;;;29.13;4.78;;;3.60;99.90;;;;;;5096150;28;20083;-69
2022/01/28 06:23:42;;;;;;;37.83;6.38;;;;;;;;;;5112694;28;20494;-70
2022/01/28 06:26:08;;;;;;;32.63;5.63;;;;;;;;;;5112863;28;20043;-69
2022/01/28 06:28:33;;;;;;;36.95;5.28;;;3.60;99.90;;;;;;5112387;28;20120;-69
2022/01/28 06:30:59;;;;;;;27.08;4.40;;;3.50;99.90;;;;;;5113963;28;20035;-72
2022/01/28 06:33:25;;;;;;;37.63;5.70;;;3.50;99.90;;;;;;5112541;28;20036;-72
2022/01/28 06:35:52;;;;;;;32.75;6.60;;;3.70;99.90;;;;;;5112668;28;20059;-72
2022/01/28 06:38:18;;;;;;;33.63;5.50;;;;;;;;;;5113679;28;20055;-72
2022/01/28 06:40:44;;;;;;;29.52;4.82;;;3.90;99.90;;;;;;5113890;28;20449;-72
2022/01/28 06:43:12;;;;;;;35.90;5.20;;;3.80;99.90;;;;;;5113528;28;20498;-72
2022/01/28 06:45:42;;;;;;;38.65;6.03;;;3.90;99.90;;;;;;5113752;28;20044;-72
2022/01/28 06:48:16;;;;;;;40.80;6.05;;;3.90;99.90;;;;;;5112386;28;20050;-72
2022/01/28 06:50:43;;;;;;;36.20;5.63;;;3.50;99.90;;;;;;5112591;28;20051;-69
2022/01/28 06:53:11;;;;;;;31.25;5.28;;;3.60;99.90;;;;;;5113943;28;20130;-69
2022/01/28 06:55:37;;;;;;;41.35;6.72;;;3.90;99.90;;;;;;5112809;28;20463;-69
2022/01/28 06:58:04;;;;;;;33.75;5.90;;;3.90;99.90;;;;;;5111003;28;20056;-69
2022/01/28 07:00:37;;;;;;;33.53;5.72;;;;;;;;;;5093091;28;20071;-69
2022/01/28 07:03:07;;;;;;;32.97;5.10;;;3.90;99.90;;;;;;5092962;28;21063;-69
2022/01/28 07:05:34;;;;;;;37.88;6.28;;;4.00;99.90;;;;;;5095691;27;20043;-69
2022/01/28 07:08:00;;;;;;;35.80;6.20;;;4.60;99.90;;;;;;5112907;28;20115;-70
2022/01/28 07:10:26;;;;;;;37.78;6.00;;;;;;;;;;5113461;28;20044;-69
2022/01/28 07:12:54;;;;;;;32.60;5.90;;;4.10;99.90;;;;;;5112128;28;20054;-69
2022/01/28 07:15:23;;;;;;;37.10;6.25;;;4.30;99.90;;;;;;5111949;28;20070;-69
2022/01/28 07:17:49;;;;;;;34.80;6.50;;;4.00;99.90;;;;;;5112915;28;20425;-69
2022/01/28 07:20:17;;;;;;;39.55;6.40;;;4.80;99.90;;;;;;5111737;28;20039;-69
2022/01/28 07:22:43;;;;;;;35.95;5.95;;;;;;;;;;5111252;28;20131;-69
2022/01/28 07:25:09;;;;;;;34.72;5.97;;;4.60;99.90;;;;;;5111147;28;20050;-69
2022/01/28 07:27:35;;;;;;;33.35;5.93;;;4.80;99.90;;;;;;5111476;28;20035;-69
2022/01/28 07:30:00;;;;;;;37.20;5.68;;;4.90;99.90;;;;;;5112637;28;20476;-69
2022/01/28 07:32:26;;;;;;;35.15;5.95;;;4.20;99.90;;;;;;5112848;28;20078;-69
2022/01/28 07:34:52;;;;;;;36.03;5.70;;;4.20;99.90;;;;;;5111699;28;20051;-72
2022/01/28 07:37:18;;;;;;;36.33;5.90;;;;;;;;;;5112621;28;20048;-72
2022/01/28 07:39:45;;;;;;;34.33;6.05;;;4.10;99.90;;;;;;5111493;28;20047;-72
2022/01/28 07:42:11;;;;;;;43.60;5.78;;;3.70;99.90;;;;;;5111448;28;20396;-72
2022/01/28 07:44:37;;;;;;;36.45;5.78;;;;;;;;;;5111515;28;20043;-72
2022/01/28 07:47:05;;;;;;;32.65;5.28;;;4.10;99.90;;;;;;5111141;28;20043;-72
2022/01/28 07:49:30;;;;;;;34.20;5.57;;;4.20;99.90;;;;;;5111108;28;20046;-72
2022/01/28 07:51:57;;;;;;;32.80;5.88;;;;;;;;;;5110987;28;20105;-72
2022/01/28 07:54:22;;;;;;;35.28;5.57;;;3.70;99.90;;;;;;5112648;28;20039;-72
2022/01/28 07:56:52;;;;;;;32.50;5.15;;;;;;;;;;5112747;28;20127;-72
2022/01/28 07:59:18;;;;;;;43.90;6.60;;;;;;;;;;5110565;28;20056;-72
2022/01/28 08:01:44;;;;;;;32.30;5.60;;;4.00;99.90;;;;;;5110992;28;20160;-72
2022/01/28 08:04:10;;;;;;;39.10;5.72;;;3.90;99.90;;;;;;5112370;28;20118;-72
2022/01/28 08:06:35;;;;;;;26.33;5.47;;;3.70;99.90;;;;;;5112132;28;20055;-72
2022/01/28 08:09:03;;;;;;;34.63;6.32;;;;;;;;;;5112216;28;20116;-72
2022/01/28 08:11:29;;;;;;;37.65;6.10;;;;;;;;;;5112132;28;20039;-72
2022/01/28 08:13:55;;;;;;;41.15;6.28;;;3.60;99.90;;;;;;5112081;28;20127;-72
2022/01/28 08:16:21;;;;;;;28.45;5.50;;;3.70;99.90;;;;;;5093586;28;20104;-72
2022/01/28 08:18:47;;;;;;;37.97;8.38;;;3.90;99.90;;;;;;5111375;28;20055;-71
2022/01/28 08:21:15;;;;;;;43.78;9.02;;;3.50;99.90;;;;;;5110541;28;20070;-71
2022/01/28 08:23:41;;;;;;;37.42;8.13;;;;;;;;;;5112303;28;20522;-71
2022/01/28 08:26:07;;;;;;;36.78;7.57;;;;;;;;;;5111704;28;20083;-71
2022/01/28 08:28:32;;;;;;;30.27;6.60;;;3.70;99.90;;;;;;5112105;28;20119;-71
2022/01/28 08:31:00;;;;;;;33.15;6.75;;;3.90;99.90;;;;;;5110578;28;20039;-71
2022/01/28 08:33:26;;;;;;;28.13;6.05;;;3.70;99.90;;;;;;5111743;28;20125;-72
2022/01/28 08:35:53;;;;;;;36.25;6.18;;;3.90;99.90;;;;;;5111583;28;20085;-72
2022/01/28 08:38:29;;;;;;;40.40;6.65;;;;;;;;;;5094188;28;20445;-71
2022/01/28 08:40:59;;;;;;;32.88;5.47;;;4.10;99.90;;;;;;5111710;28;20115;-72
2022/01/28 08:43:26;;;;;;;34.22;6.65;;;4.30;99.90;;;;;;5111623;28;20047;-72
2022/01/28 08:45:52;;;;;;;33.00;5.82;;;;;;;;;;5111445;28;20083;-71
2022/01/28 08:48:17;;;;;;;35.15;5.90;;;4.20;99.90;;;;;;5110110;28;20082;-71
2022/01/28 08:50:43;;;;;;;33.95;6.25;;;;;;;;;;5110002;28;20120;-72
2022/01/28 08:53:10;;;;;;;30.55;5.47;;;4.30;99.90;;;;;;5111318;28;20087;-72
2022/01/28 08:55:38;;;;;;;37.05;6.45;;;4.30;99.90;;;;;;5111415;28;20551;-72
2022/01/28 08:58:05;;;;;;;33.05;5.95;;;4.00;99.90;;;;;;5111319;28;20117;-72
2022/01/28 09:00:30;;;;;;;31.75;5.05;;;4.50;99.90;;;;;;5111687;28;20061;-72
2022/01/28 09:02:56;;;;;;;36.28;5.85;;;4.60;99.90;;;;;;5110088;28;20608;-72
2022/01/28 09:05:22;;;;;;;32.92;6.03;;;;;;;;;;5110403;28;20048;-72
2022/01/28 09:07:48;;;;;;;34.00;5.25;;;4.60;99.90;;;;;;5111274;28;20032;-72
2022/01/28 09:10:25;;;;;;;31.42;5.60;;;4.40;99.90;;;;;;5109744;28;20438;-71
2022/01/28 09:15:37;;;;;;;27.45;5.60;;;3.80;99.90;;;;;;5110917;28;20058;-71
2022/01/28 09:18:03;;;;;;;33.20;5.25;;;4.50;99.90;;;;;;5109932;28;20043;-71
2022/01/28 09:20:32;;;;;;;30.35;5.38;;;4.70;99.90;;;;;;5110133;28;20418;-72
2022/01/28 09:23:00;;;;;;;31.45;5.00;;;5.00;99.90;;;;;;5109876;28;20536;-72
2022/01/28 09:25:26;;;;;;;39.38;5.93;;;4.80;99.90;;;;;;5109425;28;20054;-72
2022/01/28 09:27:53;;;;;;;30.85;6.53;;;5.00;99.90;;;;;;5109654;28;20051;-72
2022/01/28 09:30:20;;;;;;;32.75;5.15;;;5.30;99.90;;;;;;5109704;28;20039;-72
2022/01/28 09:32:46;;;;;;;32.65;5.35;;;6.20;99.90;;;;;;5110873;28;20083;-72
2022/01/28 09:35:12;;;;;;;28.40;5.47;;;;;;;;;;5109581;28;20075;-72
2022/01/28 09:37:38;;;;;;;28.15;5.25;;;8.00;99.90;;;;;;5109619;28;20089;-72
2022/01/28 09:40:05;;;;;;;34.58;6.32;;;7.90;99.90;;;;;;5110943;28;20039;-72
2022/01/28 09:42:35;;;;;;;31.52;5.32;;;;;;;;;;5109492;28;20051;-73
2022/01/28 09:45:03;;;;;;;36.53;5.07;;;;;;;;;;5110584;28;20047;-72
2022/01/28 09:47:31;;;;;;;35.05;5.35;;;7.50;99.90;;;;;;5111948;28;20123;-73
2022/01/28 09:49:57;;;;;;;27.40;5.68;;;7.90;99.90;;;;;;5114960;28;20066;-73
2022/01/28 09:52:23;;;;;;;29.25;4.90;;;7.70;99.90;;;;;;5115080;28;20047;-73
2022/01/28 09:54:48;;;;;;;34.88;5.32;;;7.30;99.90;;;;;;5113874;28;20032;-73
2022/01/28 09:57:19;;;;;;;39.20;5.72;;;7.30;99.90;;;;;;5113715;28;20055;-74
2022/01/28 09:59:46;;;;;;;27.67;5.50;;;7.60;99.90;;;;;;5115204;28;20082;-73
2022/01/28 10:02:12;;;;;;;30.83;5.15;;;;;;;;;;5113586;28;20104;-72
2022/01/28 10:04:38;;;;;;;30.88;5.57;;;6.70;99.90;;;;;;5115185;28;20051;-73
2022/01/28 10:07:12;;;;;;;33.67;5.07;;;6.90;99.90;;;;;;5114560;28;20044;-73
2022/01/28 10:09:56;;;;;;;29.48;5.05;;;6.80;99.90;;;;;;5113371;28;20046;-73
2022/01/28 10:12:32;;;;;;;31.90;5.20;;;6.70;99.90;;;;;;5114271;27;20047;-73
2022/01/28 10:15:02;;;;;;;33.63;5.38;;;6.90;99.90;;;;;;5112961;28;20083;-73
2022/01/28 10:17:52;;;;;;;34.05;5.90;;;6.80;99.90;;;;;;5113093;28;20046;-73
2022/01/28 10:20:19;;;;;;;37.38;5.55;;;7.30;99.90;;;;;;5113065;28;20047;-73
2022/01/28 10:22:58;;;;;;;24.10;4.57;;;7.00;99.90;;;;;;5114479;28;20123;-73
2022/01/28 10:25:34;;;;;;;36.95;5.72;;;6.90;99.90;;;;;;5095881;28;20051;-74
2022/01/28 10:28:01;;;;;;;;;;;6.80;99.90;;;;;;5113399;28;20047;-70
2022/01/28 10:30:27;;;;;;;29.05;5.32;;;;;;;;;;5114039;28;20391;-70
2022/01/28 10:33:21;;;;;;;29.05;5.70;;;6.80;99.90;;;;;;5112538;28;20114;-70
2022/01/28 10:35:49;;;;;;;37.30;5.82;;;6.80;99.90;;;;;;5111837;27;20094;-70
2022/01/28 10:38:38;;;;;;;35.38;7.07;;;6.60;99.90;;;;;;5112331;28;20047;-73
2022/01/28 10:41:23;;;;;;;28.80;5.57;;;6.90;99.90;;;;;;5113989;28;20074;-74
2022/01/28 10:43:55;;;;;;;38.53;5.57;;;6.90;99.90;;;;;;5113647;28;20168;-73
2022/01/28 10:46:34;;;;;;;33.90;5.55;;;6.70;99.90;;;;;;5112576;28;20488;-73
2022/01/28 10:49:08;;;;;;;43.40;6.15;;;7.20;99.90;;;;;;5112463;28;20043;-74
2022/01/28 10:51:43;;;;;;;31.35;5.25;;;7.00;99.90;;;;;;5113946;28;20047;-74
2022/01/28 10:54:14;;;;;;;32.37;6.40;;;7.20;99.90;;;;;;5112348;28;20122;-74
2022/01/28 10:56:47;;;;;;;31.80;5.20;;;7.50;99.90;;;;;;5112280;28;20047;-74
2022/01/28 10:59:16;;;;;;;34.53;6.38;;;7.10;99.90;;;;;;5094307;28;20054;-74
2022/01/28 11:01:43;;;;;;;32.88;5.68;;;7.30;99.90;;;;;;5113272;28;20055;-74
2022/01/28 11:04:12;;;;;;;34.28;5.45;;;7.60;99.90;;;;;;5111824;28;20047;-73
2022/01/28 11:06:39;;;;;;;33.97;5.78;;;7.10;99.90;;;;;;5111659;28;20572;-74
2022/01/28 11:09:06;;;;;;;33.60;5.53;;;7.20;99.90;;;;;;5113292;28;20043;-74
2022/01/28 11:11:32;;;;;;;28.67;5.43;;;7.00;99.90;;;;;;5111686;28;20503;-74
2022/01/28 11:13:58;;;;;;;36.90;6.32;;;7.40;99.90;;;;;;5113022;28;20071;-73
2022/01/28 11:16:25;;;;;;;26.02;5.50;;;7.00;99.90;;;;;;5112672;28;20407;-73
2022/01/28 11:18:52;;;;;;;43.15;6.13;;;7.40;99.90;;;;;;5111580;28;20039;-74
2022/01/28 11:21:23;;;;;;;27.95;5.05;;;7.30;99.90;;;;;;5111324;28;20055;-74
2022/01/28 11:24:01;;;;;;;32.50;5.60;;;7.60;99.90;;;;;;5111766;28;20423;-74
2022/01/28 11:26:27;;;;;;;36.00;6.05;;;7.60;99.90;;;;;;5099987;28;20100;-74
2022/01/28 11:28:56;;;;;;;36.47;6.28;;;7.70;99.90;;;;;;5119466;27;20450;-74
2022/01/28 11:32:14;;;;;;;30.90;5.47;;;7.90;99.90;;;;;;5111613;28;20047;-75
2022/01/28 11:34:58;;;;;;;36.00;4.95;;;7.90;99.90;;;;;;5104393;27;20043;-74
2022/01/28 11:37:24;;;;;;;31.52;6.07;;;7.90;99.90;;;;;;5119054;27;20407;-74
2022/01/28 11:39:50;;;;;;;31.92;5.38;;;7.40;99.90;;;;;;5123654;27;20478;-74
2022/01/28 11:42:31;;;;;;;36.60;5.53;;;7.80;99.90;;;;;;5115402;27;20042;-74
2022/01/28 11:44:59;;;;;;;37.13;5.63;;;8.40;99.90;;;;;;5119431;27;20051;-74
2022/01/28 11:47:51;;;;;;;32.60;5.82;;;8.00;99.90;;;;;;5111401;28;20040;-74
2022/01/28 11:50:19;;;;;;;35.55;5.95;;;8.20;99.90;;;;;;5111059;28;20105;-74
2022/01/28 11:52:58;;;;;;;28.48;4.90;;;7.80;99.90;;;;;;5110745;28;20479;-74
2022/01/28 11:55:26;;;;;;;30.75;5.05;;;7.30;99.90;;;;;;5112509;28;20406;-74
2022/01/28 11:58:01;;;;;;;38.15;5.57;;;7.80;99.90;;;;;;5110613;28;20075;-74
2022/01/28 12:00:35;;;;;;;31.03;5.13;;;7.80;99.90;;;;;;5110613;28;20051;-74
2022/01/28 12:03:13;;;;;;;24.50;5.13;;;7.70;99.90;;;;;;5110680;28;20043;-74
2022/01/28 12:05:39;;;;;;;36.38;5.82;;;;;;;;;;5110526;28;20071;-74
2022/01/28 12:08:06;;;;;;;33.35;5.68;;;8.00;99.90;;;;;;5110443;28;20062;-74
2022/01/28 12:10:39;;;;;;;29.50;5.25;;;7.80;99.90;;;;;;5109586;28;20069;-74
2022/01/28 12:13:11;;;;;;;35.40;5.70;;;7.80;99.90;;;;;;5111048;28;20036;-75
2022/01/28 12:18:45;;;;;;;27.70;5.10;;;8.00;99.90;;;;;;5110532;28;20051;-74
2022/01/28 12:21:16;;;;;;;36.80;5.22;;;8.10;99.90;;;;;;5093410;28;20273;-74
2022/01/28 12:23:44;;;;;;;31.60;5.25;;;8.00;99.90;;;;;;5111818;28;20048;-74
2022/01/28 12:26:11;;;;;;;31.98;5.70;;;;;;;;;;5109949;28;20049;-74
2022/01/28 12:28:37;;;;;;;31.48;5.30;;;;;;;;;;5111327;28;20059;-74
2022/01/28 12:31:15;;;;;;;36.65;6.25;;;7.70;99.90;;;;;;5110365;28;20058;-75
2022/01/28 12:33:47;;;;;;;36.42;5.72;;;7.50;99.90;;;;;;5109989;28;20058;-74
2022/01/28 12:36:17;;;;;;;26.25;5.07;;;8.10;99.90;;;;;;5110006;28;20051;-74
2022/01/28 12:38:58;;;;;;;29.95;5.22;;;7.80;99.90;;;;;;5109752;28;20051;-74
2022/01/28 12:41:25;;;;;;;27.02;4.97;;;7.90;99.90;;;;;;5109855;28;20044;-74
2022/01/28 12:43:51;;;;;;;31.42;5.07;;;8.10;99.90;;;;;;5110008;28;20130;-74
2022/01/28 12:46:18;;;;;;;34.97;6.00;;;8.40;99.90;;;;;;5109660;28;20052;-74
2022/01/28 12:48:47;;;;;;;29.50;5.00;;;8.50;99.90;;;;;;5109856;28;20095;-74
2022/01/28 12:51:13;;;;;;;29.33;4.70;;;;;;;;;;5110852;28;20103;-74
2022/01/28 12:53:42;;;;;;;27.17;5.88;;;8.80;99.90;;;;;;5110759;28;20043;-74
2022/01/28 12:56:09;;;;;;;29.73;4.72;;;9.00;99.90;;;;;;5110991;28;20058;-74
2022/01/28 12:58:36;;;;;;;30.95;5.88;;;8.20;99.90;;;;;;5110198;28;20475;-74
2022/01/28 13:01:14;;;;;;;34.83;5.38;;;8.50;99.90;;;;;;5109903;28;20058;-74
2022/01/28 13:06:40;;;;;;;32.67;5.88;;;8.60;99.90;;;;;;5109247;28;20491;-74
2022/01/28 13:09:17;;;;;;;23.23;4.70;;;8.40;99.90;;;;;;5109226;28;20144;-74
2022/01/28 13:11:50;;;;;;;23.30;4.40;;;8.50;99.90;;;;;;5109196;28;20048;-74
2022/01/28 13:14:20;;;;;;;27.38;4.47;;;9.10;99.90;;;;;;5109287;28;20050;-74
2022/01/28 13:16:48;;;;;;;26.02;4.60;;;8.30;99.90;;;;;;5109112;28;20052;-74
2022/01/28 13:19:15;;;;;;;22.92;4.38;;;8.50;99.90;;;;;;5092608;28;20071;-74
2022/01/28 13:21:44;;;;;;;28.75;4.47;;;8.20;99.90;;;;;;5110702;28;20142;-74
2022/01/28 13:24:15;;;;;;;32.75;5.25;;;7.70;99.90;;;;;;5113347;28;20453;-74
2022/01/28 13:27:06;;;;;;;24.30;4.45;;;8.70;99.90;;;;;;5113420;28;20515;-74
2022/01/28 13:29:48;;;;;;;23.73;4.70;;;8.10;99.90;;;;;;5114849;28;20368;-74
2022/01/28 13:32:19;;;;;;;25.58;4.50;;;8.10;99.90;;;;;;5113510;28;20086;-74
2022/01/28 13:34:58;;;;;;;28.65;4.55;;;8.10;99.90;;;;;;5113532;28;20112;-74
2022/01/28 13:37:39;;;;;;;24.95;5.15;;;8.10;99.90;;;;;;5113664;28;20042;-73
2022/01/28 13:40:11;;;;;;;22.42;4.70;;;8.30;99.90;;;;;;5096973;28;20050;-74
2022/01/28 13:42:57;;;;;;;25.38;4.93;;;8.10;99.90;;;;;;5113934;28;20063;-74
2022/01/28 13:45:34;;;;;;;25.38;5.20;;;8.00;99.90;;;;;;5099088;28;20403;-74
2022/01/28 13:48:01;;;;;;;26.05;4.55;;;7.50;99.90;;;;;;5113849;28;20386;-74
2022/01/28 13:50:33;;;;;;;25.77;4.47;;;7.50;99.90;;;;;;5113496;28;20097;-74
2022/01/28 13:55:52;;;;;;;29.95;4.97;;;7.90;99.90;;;;;;5113575;28;20504;-74
2022/01/28 13:58:19;;;;;;;26.02;4.80;;;8.10;99.90;;;;;;5113203;28;20047;-74
2022/01/28 14:00:49;;;;;;;30.13;4.60;;;8.30;99.90;;;;;;5113165;28;20054;-74
2022/01/28 14:03:22;;;;;;;28.80;4.78;;;8.10;99.90;;;;;;5113223;28;20052;-74
2022/01/28 14:05:55;;;;;;;28.88;4.85;;;8.30;99.90;;;;;;5113098;28;20043;-74
2022/01/28 14:08:51;;;;;;;24.80;4.57;;;7.80;99.90;;;;;;5112919;28;20050;-74
2022/01/28 14:11:35;;;;;;;31.30;5.03;;;8.00;99.90;;;;;;5112866;28;20075;-74
2022/01/28 14:14:25;;;;;;;27.52;5.07;;;7.50;99.90;;;;;;5114000;28;20062;-74
2022/01/28 14:16:57;;;;;;;24.42;5.38;;;8.10;99.90;;;;;;5112371;28;20071;-74
2022/01/28 14:19:25;;;;;;;26.27;5.90;;;7.80;99.90;;;;;;5112748;28;20043;-74
2022/01/28 14:21:52;;;;;;;23.98;5.63;;;7.30;99.90;;;;;;5112635;28;20050;-74
2022/01/28 14:24:21;;;;;;;33.00;5.95;;;7.70;99.90;;;;;;5112840;28;20056;-74
2022/01/28 14:26:58;;;;;;;32.22;5.32;;;7.60;99.90;;;;;;5112855;28;20521;-73
2022/01/28 14:29:47;;;;;;;26.63;5.25;;;7.70;99.90;;;;;;5112732;28;20075;-74
2022/01/28 14:32:21;;;;;;;30.25;5.60;;;7.40;99.90;;;;;;5112551;28;20487;-74
2022/01/28 14:34:55;;;;;;;32.13;4.93;;;7.00;99.90;;;;;;5111752;28;20126;-72
2022/01/28 14:37:27;;;;;;;26.42;5.22;;;7.90;99.90;;;;;;5114013;28;20040;-73
2022/01/28 14:39:55;;;;;;;28.35;5.43;;;7.60;99.90;;;;;;5112171;28;20083;-73
2022/01/28 14:42:23;;;;;;;29.92;5.60;;;7.30;99.90;;;;;;5112245;28;20035;-73
2022/01/28 14:44:50;;;;;;;27.35;5.15;;;7.50;99.90;;;;;;5113490;28;20047;-73
2022/01/28 14:47:17;;;;;;;36.38;5.88;;;7.40;99.90;;;;;;5111938;28;20063;-73
2022/01/28 14:49:43;;;;;;;30.23;5.50;;;;;;;;;;5113179;28;20086;-73
2022/01/28 14:52:15;;;;;;;26.02;5.22;;;7.30;99.90;;;;;;5112152;28;20075;-73
2022/01/28 14:54:41;;;;;;;26.98;5.13;;;7.50;99.90;;;;;;5111728;28;20565;-73